Time;durP1;ratioP1;P1;durP2;ratioP2;P2;SDS_P1;SDS_P2;PMS_P1;PMS_P2;Temp;Humidity;BMP_temperature;BMP_pressure;BME280_temperature;BME280_humidity;BME280_pressure;Samples;Min_cycle;Max_cycle;Signal;HPM_P1;HPM_P2
2024/01/07 00:02:10;;;;;;;3.63;2.77;;;;;;;20.07;53.88;96667.59;4999813;28;20273;-26
2024/01/07 00:04:36;;;;;;;3.13;2.83;;;;;;;20.07;54.03;96667.59;5003639;28;20207;-26
2024/01/07 00:07:04;;;;;;;3.57;2.57;;;;;;;20.07;53.96;96677.78;5012276;28;20208;-26
2024/01/07 00:09:31;;;;;;;3.03;2.50;;;;;;;20.06;54.04;96668.38;5004913;28;20209;-29
2024/01/07 00:11:57;;;;;;;3.80;2.80;;;;;;;20.06;54.23;96671.81;5011993;28;20297;-26
2024/01/07 00:14:24;;;;;;;4.70;2.50;;;;;;;20.06;54.16;96676.91;5003230;28;20268;-29
2024/01/07 00:16:50;;;;;;;4.27;2.40;;;;;;;20.07;53.83;96677.78;5009321;28;20552;-26
2024/01/07 00:19:17;;;;;;;3.03;2.70;;;;;;;20.06;54.18;96676.91;5010895;28;20256;-30
2024/01/07 00:21:44;;;;;;;3.90;2.67;;;;;;;20.06;54.12;96674.38;5004143;28;20677;-26
2024/01/07 00:24:11;;;;;;;3.13;2.40;;;;;;;20.06;53.59;96669.25;5002194;28;20685;-28
2024/01/07 00:26:37;;;;;;;2.90;2.47;;;;;;;19.99;54.04;96662.31;5006761;28;20203;-37
2024/01/07 00:29:04;;;;;;;3.40;2.67;;;;;;;20.05;54.13;96674.31;5003602;28;20203;-27
2024/01/07 00:31:30;;;;;;;3.60;2.50;;;;;;;20.06;54.14;96670.94;4995513;28;20223;-28
2024/01/07 00:33:57;;;;;;;3.13;2.70;;;;;;;20.06;54.02;96670.94;5000943;28;20687;-26
2024/01/07 00:36:24;;;;;;;2.80;2.50;;;;;;;20.06;54.01;96674.38;5012940;28;20203;-27
2024/01/07 00:38:50;;;;;;;3.03;2.73;;;;;;;20.06;53.94;96674.38;5002086;28;20256;-27
2024/01/07 00:41:18;;;;;;;2.60;2.40;;;;;;;20.07;54.18;96668.41;5006916;28;20316;-28
2024/01/07 00:43:44;;;;;;;2.87;2.63;;;;;;;20.06;54.16;96671.81;5010622;28;20248;-27
2024/01/07 00:46:11;;;;;;;2.73;2.40;;;;;;;20.06;54.00;96671.81;5004862;28;20260;-27
2024/01/07 00:48:37;;;;;;;3.00;2.70;;;;;;;20.06;54.11;96674.38;5012741;28;20198;-31
2024/01/07 00:51:04;;;;;;;3.47;2.60;;;;;;;20.06;53.91;96676.91;5009358;28;20578;-28
2024/01/07 00:53:31;;;;;;;2.80;2.53;;;;;;;20.07;54.09;96680.34;4998295;28;20199;-28
2024/01/07 00:55:57;;;;;;;3.20;2.90;;;;;;;20.06;54.18;96686.25;5001585;28;20657;-26
2024/01/07 00:58:24;;;;;;;3.27;2.47;;;;;;;20.06;54.21;96683.69;5009636;28;20242;-26
2024/01/07 01:00:53;;;;;;;4.50;2.70;;;;;;;20.01;54.34;96678.50;5007490;28;20756;-28
2024/01/07 01:03:20;;;;;;;2.53;2.33;;;;;;;20.06;53.97;96689.66;5013666;28;20560;-26
2024/01/07 01:05:47;;;;;;;3.07;2.70;;;;;;;20.07;54.18;96677.78;5003655;28;20199;-27
2024/01/07 01:08:14;;;;;;;3.00;2.60;;;;;;;20.05;54.08;96684.53;5002892;28;20199;-26
2024/01/07 01:10:41;;;;;;;2.37;2.17;;;;;;;20.06;54.01;96689.66;5005569;28;20199;-26
2024/01/07 01:13:07;;;;;;;3.37;2.57;;;;;;;20.07;54.12;96695.63;5005916;28;20302;-29
2024/01/07 01:15:34;;;;;;;3.67;2.77;;;;;;;20.06;54.25;96694.75;4997035;28;20286;-28
2024/01/07 01:18:01;;;;;;;2.60;2.40;;;;;;;20.06;54.08;96689.66;5001276;28;20205;-26
2024/01/07 01:20:28;;;;;;;2.70;2.50;;;;;;;20.06;53.98;96691.34;5006776;28;20203;-29
2024/01/07 01:22:54;;;;;;;2.80;2.50;;;;;;;20.06;53.86;96699.00;4999576;28;20668;-26
2024/01/07 01:25:21;;;;;;;3.17;2.87;;;;;;;20.07;54.11;96700.75;4999746;28;20234;-26
2024/01/07 01:27:47;;;;;;;3.10;2.63;;;;;;;20.02;54.17;96688.72;5001444;28;20582;-26
2024/01/07 01:30:14;;;;;;;2.77;2.57;;;;;;;20.07;53.85;96695.63;5000964;28;20199;-29
2024/01/07 01:32:41;;;;;;;2.80;2.50;;;;;;;19.98;53.97;96680.97;5004505;28;20230;-27
2024/01/07 01:35:08;;;;;;;3.53;3.00;;;;;;;20.07;54.06;96698.19;5008557;28;20203;-27
2024/01/07 01:37:36;;;;;;;2.93;2.20;;;;;;;20.06;54.19;96693.91;5000156;28;20207;-28
2024/01/07 01:40:03;;;;;;;3.17;2.80;;;;;;;20.06;54.14;96693.91;5004067;28;20201;-29
2024/01/07 01:42:30;;;;;;;2.90;2.60;;;;;;;20.07;54.91;96688.81;5000481;28;20238;-27
2024/01/07 01:45:01;;;;;;;2.70;2.50;;;;;;;20.06;54.05;96692.22;5006988;28;20213;-27
2024/01/07 01:47:29;;;;;;;2.93;2.60;;;;;;;20.07;54.08;96695.63;5007405;28;20241;-26
2024/01/07 01:49:55;;;;;;;3.73;2.80;;;;;;;20.06;54.06;96689.66;5002991;28;20221;-26
2024/01/07 01:52:22;;;;;;;2.63;2.43;;;;;;;20.05;53.93;96693.06;4995997;28;20248;-26
2024/01/07 01:54:49;;;;;;;3.10;2.70;;;;;;;20.04;54.20;96691.31;5008741;28;20670;-26
2024/01/07 01:57:19;;;;;;;2.67;2.47;;;;;;;20.04;54.04;96690.47;4982338;28;20564;-26
2024/01/07 01:59:45;;;;;;;3.13;2.80;;;;;;;20.06;54.15;96691.34;5001180;28;20206;-27
2024/01/07 02:02:12;;;;;;;2.83;2.63;;;;;;;20.02;54.26;96683.63;5007156;28;20718;-27
2024/01/07 02:04:38;;;;;;;2.90;2.60;;;;;;;20.07;54.30;96693.09;4995217;28;20234;-27
2024/01/07 02:07:05;;;;;;;2.87;2.50;;;;;;;19.76;54.07;96641.41;5003094;28;20614;-26
2024/01/07 02:09:32;;;;;;;2.80;2.60;;;;;;;20.08;54.12;96694.81;5005274;28;20209;-27
2024/01/07 02:12:02;;;;;;;3.00;2.80;;;;;;;20.06;54.27;96697.31;5009514;28;20214;-26
2024/01/07 02:14:29;;;;;;;3.07;2.77;;;;;;;20.06;54.28;96689.66;5000997;28;20239;-26
2024/01/07 02:16:55;;;;;;;2.70;2.50;;;;;;;20.07;54.39;96698.19;5002647;28;20256;-30
2024/01/07 02:19:22;;;;;;;3.17;2.77;;;;;;;20.07;54.08;96695.63;5002767;28;20253;-29
2024/01/07 02:21:50;;;;;;;3.17;2.87;;;;;;;20.06;54.27;96697.31;5001851;28;20226;-26
2024/01/07 02:24:17;;;;;;;3.30;3.00;;;;;;;20.08;54.08;96697.34;5008996;28;20200;-26
2024/01/07 02:26:44;;;;;;;2.70;2.50;;;;;;;19.81;53.98;96652.56;5003553;28;20715;-26
2024/01/07 02:29:10;;;;;;;3.27;2.80;;;;;;;20.08;54.04;96700.78;4995007;28;20578;-26
2024/01/07 02:31:37;;;;;;;3.10;2.90;;;;;;;20.08;54.15;96698.22;5003055;28;20250;-28
2024/01/07 02:34:03;;;;;;;3.10;2.80;;;;;;;20.10;54.18;96700.81;4999208;28;20745;-27
2024/01/07 02:36:30;;;;;;;3.23;2.93;;;;;;;20.10;54.19;96696.53;4999801;28;20229;-26
2024/01/07 02:38:57;;;;;;;2.90;2.70;;;;;;;20.09;54.21;96699.94;5002266;28;20226;-30
2024/01/07 02:41:25;;;;;;;3.03;2.83;;;;;;;20.11;54.06;96694.88;5000410;28;20219;-26
2024/01/07 02:43:52;;;;;;;3.30;3.00;;;;;;;20.11;54.23;96694.88;5009569;28;20241;-26
2024/01/07 02:46:19;;;;;;;2.87;2.67;;;;;;;20.10;54.01;96696.53;5003269;28;20584;-36
2024/01/07 02:48:46;;;;;;;3.23;2.93;;;;;;;20.11;53.95;96693.19;5008910;28;20225;-27
2024/01/07 02:51:13;;;;;;;2.67;2.47;;;;;;;20.12;53.99;96686.38;5000563;28;20388;-29
2024/01/07 02:53:39;;;;;;;3.33;3.03;;;;;;;20.13;53.64;96688.16;5007854;28;20202;-31
2024/01/07 02:56:08;;;;;;;2.70;2.50;;;;;;;20.12;53.98;96688.94;5007792;28;20207;-27
2024/01/07 02:58:35;;;;;;;2.70;2.50;;;;;;;20.13;54.24;96688.16;5000540;28;20203;-26
2024/01/07 03:01:01;;;;;;;3.07;2.87;;;;;;;20.13;54.01;96683.06;4998503;28;20668;-28
2024/01/07 03:03:28;;;;;;;3.40;2.97;;;;;;;20.12;53.87;96682.16;4999615;28;20662;-26
2024/01/07 03:05:55;;;;;;;3.30;3.00;;;;;;;20.14;54.05;96684.75;4999846;28;20210;-26
2024/01/07 03:08:22;;;;;;;2.70;2.50;;;;;;;20.14;53.83;96688.19;5005116;28;20285;-28
2024/01/07 03:10:48;;;;;;;2.80;2.60;;;;;;;20.14;53.96;96687.31;5004210;28;20226;-29
2024/01/07 03:13:15;;;;;;;3.17;2.80;;;;;;;20.14;53.98;96690.75;5000571;28;20199;-28
2024/01/07 03:15:41;;;;;;;2.93;2.67;;;;;;;20.15;54.07;96691.56;4996250;28;20654;-27
2024/01/07 03:18:08;;;;;;;3.20;2.90;;;;;;;20.15;54.06;96684.78;5005525;28;20293;-30
2024/01/07 03:20:35;;;;;;;3.23;2.93;;;;;;;20.15;54.04;96697.56;4999121;28;20253;-31
2024/01/07 03:23:01;;;;;;;2.90;2.70;;;;;;;20.14;53.97;96697.50;5005427;28;20646;-27
2024/01/07 03:25:28;;;;;;;2.97;2.67;;;;;;;20.14;53.89;96698.38;5005059;28;20256;-26
2024/01/07 03:27:54;;;;;;;2.90;2.70;;;;;;;20.14;53.81;96693.28;4999091;28;20677;-28
2024/01/07 03:30:21;;;;;;;3.10;2.80;;;;;;;20.14;53.96;96694.97;4996486;28;20213;-26
2024/01/07 03:32:48;;;;;;;3.20;2.90;;;;;;;20.14;53.73;96697.50;4996981;28;20273;-28
2024/01/07 03:35:14;;;;;;;3.33;3.03;;;;;;;20.13;53.72;96691.53;5000848;28;20290;-26
2024/01/07 03:37:41;;;;;;;3.90;2.97;;;;;;;20.14;53.67;96692.41;5003731;28;20629;-30
2024/01/07 03:40:11;;;;;;;3.70;3.40;;;;;;;20.15;53.79;96699.22;4996047;28;20678;-28
2024/01/07 03:42:38;;;;;;;3.80;3.50;;;;;;;20.12;53.63;96705.09;5003761;28;20226;-26
2024/01/07 03:45:05;;;;;;;3.13;2.93;;;;;;;20.11;53.75;96699.97;5009227;28;20207;-28
2024/01/07 03:47:31;;;;;;;3.37;3.07;;;;;;;20.10;54.00;96708.47;5000769;28;20234;-27
2024/01/07 03:49:58;;;;;;;3.87;3.47;;;;;;;20.07;54.12;96705.84;5009588;28;20218;-26
2024/01/07 03:52:25;;;;;;;3.30;3.00;;;;;;;20.07;54.03;96699.03;5013446;28;20313;-28
2024/01/07 03:54:51;;;;;;;3.10;2.90;;;;;;;20.06;54.21;96696.44;5007482;28;20202;-26
2024/01/07 03:57:18;;;;;;;3.50;3.20;;;;;;;20.06;54.21;96709.19;5005657;28;20202;-26
2024/01/07 03:59:45;;;;;;;3.40;3.10;;;;;;;20.05;54.05;96712.59;5000165;28;20556;-26
2024/01/07 04:02:11;;;;;;;3.60;3.30;;;;;;;19.95;54.50;96703.84;5010152;28;20250;-37
2024/01/07 04:04:38;;;;;;;3.30;3.00;;;;;;;20.05;54.16;96718.56;5000752;28;20207;-28
2024/01/07 04:07:05;;;;;;;3.10;2.90;;;;;;;20.04;54.06;96719.38;5003633;28;20210;-26
2024/01/07 04:09:31;;;;;;;3.53;3.20;;;;;;;20.04;54.03;96721.91;5001998;28;20225;-26
2024/01/07 04:11:58;;;;;;;3.17;2.90;;;;;;;20.06;54.04;96729.59;5005301;28;20254;-26
2024/01/07 04:14:27;;;;;;;3.63;3.30;;;;;;;20.04;53.93;96727.03;5004585;28;20226;-26
2024/01/07 04:16:54;;;;;;;3.53;3.23;;;;;;;20.04;54.21;96724.47;4998664;28;20213;-26
2024/01/07 04:19:20;;;;;;;3.70;3.30;;;;;;;20.04;54.19;96732.13;5003957;28;20257;-28
2024/01/07 04:21:47;;;;;;;3.57;3.27;;;;;;;20.04;54.25;96727.03;5006479;28;20253;-28
2024/01/07 04:24:14;;;;;;;3.30;3.00;;;;;;;20.02;54.08;96728.69;5004921;28;20252;-26
2024/01/07 04:26:40;;;;;;;3.47;3.17;;;;;;;20.03;53.90;96732.97;5006623;28;20199;-26
2024/01/07 04:29:07;;;;;;;2.97;2.77;;;;;;;20.02;54.25;96736.34;5006272;28;20238;-30
2024/01/07 04:31:33;;;;;;;3.50;3.20;;;;;;;20.03;54.07;96740.59;5014026;28;20277;-26
2024/01/07 04:34:00;;;;;;;3.50;3.20;;;;;;;20.03;54.25;96738.06;5008435;28;20285;-27
2024/01/07 04:36:27;;;;;;;3.10;2.90;;;;;;;20.03;54.04;96743.16;5008039;28;20594;-26
2024/01/07 04:38:53;;;;;;;3.50;3.20;;;;;;;20.02;54.05;96742.28;5000282;28;20297;-27
2024/01/07 04:41:20;;;;;;;3.43;3.13;;;;;;;19.99;54.13;96743.94;5007700;28;20630;-26
2024/01/07 04:43:46;;;;;;;3.50;3.20;;;;;;;19.93;54.22;96734.41;5002633;28;20595;-34
2024/01/07 04:46:13;;;;;;;3.33;3.10;;;;;;;20.02;54.27;96752.47;4999242;28;20732;-27
2024/01/07 04:48:40;;;;;;;3.40;3.10;;;;;;;20.02;54.23;96757.59;5009245;28;20202;-31
2024/01/07 04:51:08;;;;;;;3.37;3.07;;;;;;;20.02;54.06;96764.41;5008892;28;20256;-26
2024/01/07 04:53:35;;;;;;;3.80;3.47;;;;;;;20.03;54.42;96755.91;5010174;28;20556;-28
2024/01/07 04:56:02;;;;;;;3.50;3.20;;;;;;;20.03;54.11;96761.00;5008257;28;20213;-26
2024/01/07 04:58:29;;;;;;;4.07;3.70;;;;;;;20.04;54.03;96769.53;5007288;28;20195;-27
2024/01/07 05:00:55;;;;;;;3.40;3.10;;;;;;;20.04;54.15;96767.81;5003113;28;20240;-26
2024/01/07 05:03:22;;;;;;;3.50;3.20;;;;;;;20.04;54.03;96766.97;5005169;28;20297;-26
2024/01/07 05:05:49;;;;;;;3.50;3.20;;;;;;;20.04;54.03;96775.47;5013258;28;20198;-29
2024/01/07 05:08:15;;;;;;;3.40;3.10;;;;;;;20.05;54.23;96773.81;5006272;28;20229;-26
2024/01/07 05:10:42;;;;;;;3.47;3.17;;;;;;;20.04;54.09;96772.09;5000763;28;20230;-29
2024/01/07 05:13:08;;;;;;;3.60;3.30;;;;;;;20.03;54.15;96776.31;4995589;28;20218;-27
2024/01/07 05:15:35;;;;;;;3.70;3.30;;;;;;;20.03;54.03;96773.75;5011386;28;20229;-28
2024/01/07 05:18:02;;;;;;;3.80;3.50;;;;;;;20.02;54.10;96778.00;5011000;28;20202;-29
2024/01/07 05:20:29;;;;;;;3.60;3.30;;;;;;;20.03;54.11;96783.97;5009436;28;20243;-26
2024/01/07 05:22:55;;;;;;;3.60;3.30;;;;;;;20.04;53.97;96782.28;5011926;28;20357;-28
2024/01/07 05:25:22;;;;;;;3.90;3.50;;;;;;;20.03;53.94;96789.06;5009358;28;20238;-33
2024/01/07 05:27:49;;;;;;;3.20;2.90;;;;;;;20.03;54.14;96786.50;5011896;28;20222;-27
2024/01/07 05:30:16;;;;;;;3.40;3.20;;;;;;;20.03;54.00;96799.25;4997538;28;20273;-30
2024/01/07 05:32:43;;;;;;;3.40;3.10;;;;;;;20.03;54.11;96796.72;5007648;28;20264;-26
2024/01/07 05:35:10;;;;;;;3.10;2.80;;;;;;;20.04;53.61;96797.59;5001431;28;20218;-28
2024/01/07 05:37:36;;;;;;;3.60;3.30;;;;;;;20.04;53.82;96792.50;5005169;28;20232;-26
2024/01/07 05:40:03;;;;;;;3.40;3.10;;;;;;;20.05;53.67;96795.06;5004878;28;20245;-26
2024/01/07 05:42:30;;;;;;;4.03;3.67;;;;;;;20.06;53.27;96801.88;5007044;28;20236;-29
2024/01/07 05:44:56;;;;;;;3.90;3.60;;;;;;;20.07;53.64;96808.72;5006623;28;20661;-26
2024/01/07 05:47:23;;;;;;;3.87;3.57;;;;;;;20.07;53.61;96803.59;5003467;28;20226;-29
2024/01/07 05:49:51;;;;;;;3.80;3.50;;;;;;;20.07;53.66;96803.59;5003483;28;20265;-26
2024/01/07 05:52:18;;;;;;;4.10;3.70;;;;;;;20.07;53.59;96808.72;5001713;28;20220;-29
2024/01/07 05:54:45;;;;;;;3.90;3.60;;;;;;;20.08;54.03;96815.56;4996432;28;20207;-27
2024/01/07 05:57:12;;;;;;;4.03;3.73;;;;;;;20.07;53.65;96816.34;5001556;28;20612;-26
2024/01/07 05:59:38;;;;;;;3.70;3.40;;;;;;;20.05;53.75;96820.59;5012319;28;20585;-28
2024/01/07 06:02:05;;;;;;;4.10;3.70;;;;;;;20.05;53.75;96820.59;5006586;28;20218;-27
2024/01/07 06:04:32;;;;;;;4.53;4.07;;;;;;;20.05;53.79;96822.25;5006513;28;20198;-27
2024/01/07 06:06:58;;;;;;;3.93;3.53;;;;;;;20.04;53.97;96818.84;5003028;28;20229;-26
2024/01/07 06:09:25;;;;;;;4.17;3.80;;;;;;;20.03;53.92;96822.22;4995537;28;20286;-26
2024/01/07 06:11:52;;;;;;;4.13;3.80;;;;;;;20.02;53.78;96823.06;4996893;28;20666;-26
2024/01/07 06:14:19;;;;;;;3.80;3.50;;;;;;;20.01;53.93;96828.97;5002806;28;20203;-26
2024/01/07 06:16:45;;;;;;;4.07;3.77;;;;;;;19.91;53.90;96807.50;5003569;28;20554;-35
2024/01/07 06:19:12;;;;;;;4.10;3.80;;;;;;;20.01;53.98;96826.41;5000892;28;20209;-28
2024/01/07 06:21:38;;;;;;;4.00;3.50;;;;;;;20.01;53.96;96825.56;5012745;28;20225;-26
2024/01/07 06:24:07;;;;;;;4.33;3.93;;;;;;;20.01;54.00;96828.97;5010700;28;20253;-26
2024/01/07 06:26:34;;;;;;;3.73;3.43;;;;;;;19.99;54.13;96839.13;5005995;28;20272;-31
2024/01/07 06:29:01;;;;;;;4.30;3.90;;;;;;;19.99;53.96;96828.09;5007427;28;20202;-26
2024/01/07 06:31:27;;;;;;;4.00;3.63;;;;;;;19.98;53.76;96829.75;5004023;28;20234;-26
2024/01/07 06:33:57;;;;;;;3.87;3.57;;;;;;;19.99;53.93;96834.03;5004427;28;20276;-31
2024/01/07 06:36:25;;;;;;;3.70;3.40;;;;;;;20.00;54.07;96837.44;5000317;28;20687;-26
2024/01/07 06:38:51;;;;;;;4.33;3.90;;;;;;;20.00;53.60;96834.91;4998095;28;20203;-26
2024/01/07 06:41:18;;;;;;;4.10;3.70;;;;;;;20.01;54.05;96845.97;5007176;28;20223;-26
2024/01/07 06:43:45;;;;;;;4.27;3.90;;;;;;;20.00;53.89;96834.91;5001445;28;20743;-26
2024/01/07 06:46:11;;;;;;;3.97;3.50;;;;;;;20.00;53.88;96842.56;4998248;28;20239;-27
2024/01/07 06:48:38;;;;;;;4.03;3.60;;;;;;;20.00;54.01;96837.44;5004489;28;20221;-26
2024/01/07 06:51:09;;;;;;;4.17;3.77;;;;;;;20.00;54.01;96842.56;5009901;28;20230;-29
2024/01/07 06:53:35;;;;;;;3.70;3.40;;;;;;;20.01;54.16;96845.97;5004497;28;20249;-26
2024/01/07 06:56:02;;;;;;;3.90;3.60;;;;;;;20.01;54.06;96854.47;4992175;28;20235;-26
2024/01/07 06:58:29;;;;;;;3.83;3.53;;;;;;;20.00;54.07;96857.84;5004456;28;20199;-31
2024/01/07 07:00:56;;;;;;;3.80;3.50;;;;;;;20.01;54.10;96859.56;4998497;28;20238;-29
2024/01/07 07:03:22;;;;;;;4.20;3.90;;;;;;;19.94;53.82;96850.06;5008789;28;20575;-28
2024/01/07 07:05:49;;;;;;;3.83;3.53;;;;;;;20.01;53.91;96859.56;5004795;28;20239;-27
2024/01/07 07:08:16;;;;;;;4.13;3.73;;;;;;;20.02;54.06;96860.44;5005721;28;20285;-27
2024/01/07 07:10:42;;;;;;;3.77;3.47;;;;;;;20.01;53.97;96867.22;4998108;28;20401;-26
2024/01/07 07:13:09;;;;;;;4.27;3.87;;;;;;;20.01;53.85;96867.22;4997696;28;20713;-26
2024/01/07 07:15:36;;;;;;;3.70;3.40;;;;;;;20.01;53.98;96869.78;4993948;28;20195;-27
2024/01/07 07:18:03;;;;;;;3.87;3.57;;;;;;;20.01;53.91;96869.78;4995276;28;20579;-26
2024/01/07 07:20:30;;;;;;;3.93;3.57;;;;;;;20.02;53.74;96868.97;5003756;28;20202;-26
2024/01/07 07:22:56;;;;;;;3.43;3.13;;;;;;;20.04;53.80;96863.91;5010548;28;20280;-26
2024/01/07 07:25:23;;;;;;;3.50;3.20;;;;;;;20.04;53.65;96874.09;5006037;28;20237;-26
2024/01/07 07:27:49;;;;;;;3.60;3.30;;;;;;;20.05;53.46;96874.16;5004479;28;20214;-27
2024/01/07 07:30:17;;;;;;;4.10;3.70;;;;;;;20.06;53.60;96880.97;5000976;28;20194;-26
2024/01/07 07:32:44;;;;;;;3.93;3.63;;;;;;;20.07;53.35;96886.94;5002379;28;20924;-26
2024/01/07 07:35:11;;;;;;;4.40;3.73;;;;;;;20.07;53.64;96884.38;5004136;28;20661;-26
2024/01/07 07:37:38;;;;;;;4.30;3.90;;;;;;;20.08;53.52;96888.66;5005373;28;20202;-29
2024/01/07 07:40:05;;;;;;;4.13;3.83;;;;;;;20.09;53.26;96895.47;5005907;28;20402;-26
2024/01/07 07:42:31;;;;;;;4.67;4.27;;;;;;;20.08;53.37;96894.63;5004401;28;20763;-31
2024/01/07 07:44:58;;;;;;;4.30;3.90;;;;;;;20.07;53.32;96900.53;5008678;28;20210;-26
2024/01/07 07:47:25;;;;;;;4.63;4.20;;;;;;;20.06;53.34;96898.81;5001402;28;20740;-26
2024/01/07 07:49:51;;;;;;;4.47;4.07;;;;;;;20.05;53.57;96902.19;5011004;28;20681;-28
2024/01/07 07:52:21;;;;;;;4.40;4.00;;;;;;;20.05;53.51;96908.97;4999106;28;20218;-26
2024/01/07 07:54:48;;;;;;;4.30;3.90;;;;;;;20.04;53.51;96913.19;5003102;28;20268;-26
2024/01/07 07:57:15;;;;;;;4.40;3.90;;;;;;;20.04;53.55;96913.19;4999673;28;20214;-26
2024/01/07 07:59:42;;;;;;;4.70;4.30;;;;;;;20.02;53.44;96918.25;5007768;28;20264;-40
2024/01/07 08:02:08;;;;;;;4.33;3.93;;;;;;;20.02;53.49;96919.09;5005567;28;20266;-26
2024/01/07 08:04:35;;;;;;;3.90;3.60;;;;;;;20.01;53.50;96927.59;5007415;28;20222;-27
2024/01/07 08:07:02;;;;;;;4.03;3.67;;;;;;;20.02;53.56;96934.41;5009198;28;20206;-27
2024/01/07 08:09:28;;;;;;;4.20;3.83;;;;;;;20.01;53.65;96930.97;5002968;28;20234;-27
2024/01/07 08:11:55;;;;;;;4.30;3.90;;;;;;;20.01;53.71;96930.97;5002065;28;20225;-26
2024/01/07 08:14:21;;;;;;;4.37;3.97;;;;;;;20.01;53.68;96935.25;4998485;28;20227;-27
2024/01/07 08:16:48;;;;;;;4.30;3.90;;;;;;;20.01;53.71;96937.78;5007548;28;20440;-29
2024/01/07 08:19:15;;;;;;;4.53;4.13;;;;;;;20.01;53.45;96943.72;5011641;28;20206;-27
2024/01/07 08:21:41;;;;;;;5.33;4.10;;;;;;;20.01;53.77;96950.53;5010045;28;20229;-26
2024/01/07 08:24:10;;;;;;;4.40;4.00;;;;;;;20.02;53.40;96948.03;4998042;28;20231;-26
2024/01/07 08:26:37;;;;;;;5.73;5.07;;;;;;;20.03;51.25;96952.28;5007508;28;20198;-27
2024/01/07 08:29:03;;;;;;;7.23;6.53;;;;;;;20.08;47.76;96954.97;5004080;28;20209;-26
2024/01/07 08:31:30;;;;;;;8.17;7.37;;;;;;;20.06;46.72;96951.50;5008225;28;20226;-26
2024/01/07 08:33:57;;;;;;;9.97;7.60;;;;;;;20.05;46.88;96955.75;5009247;28;20249;-26
2024/01/07 08:36:24;;;;;;;13.30;8.57;;;;;;;20.06;45.42;96956.59;5004570;28;20623;-27
2024/01/07 08:38:51;;;;;;;9.23;7.70;;;;;;;20.05;46.30;96960.00;5010223;28;20234;-26
2024/01/07 08:41:17;;;;;;;9.07;8.10;;;;;;;20.04;44.85;96964.22;5006423;28;20336;-30
2024/01/07 08:43:45;;;;;;;10.47;8.03;;;;;;;20.04;44.62;96953.16;5004260;28;20222;-27
2024/01/07 08:46:13;;;;;;;10.77;8.07;;;;;;;20.05;44.15;96962.53;4999985;28;20202;-35
2024/01/07 08:48:40;;;;;;;8.73;7.73;;;;;;;20.03;43.79;96957.41;5007107;28;20289;-27
2024/01/07 08:51:07;;;;;;;8.10;7.30;;;;;;;20.06;42.74;96964.25;5008041;28;20289;-26
2024/01/07 08:53:34;;;;;;;9.87;8.07;;;;;;;20.07;42.74;96964.28;5010460;28;20223;-29
2024/01/07 08:56:00;;;;;;;9.87;7.53;;;;;;;20.07;42.50;96966.84;5012826;28;20632;-27
2024/01/07 08:58:27;;;;;;;10.40;7.70;;;;;;;20.03;42.82;96965.06;5002693;28;20265;-26
2024/01/07 09:00:53;;;;;;;10.63;7.87;;;;;;;20.00;42.97;96975.16;5009569;28;20214;-27
2024/01/07 09:03:20;;;;;;;9.03;7.57;;;;;;;19.98;43.93;96977.69;5001517;28;20716;-26
2024/01/07 09:05:46;;;;;;;9.43;6.70;;;;;;;19.96;45.40;96983.56;5003483;28;20203;-27
2024/01/07 09:08:14;;;;;;;8.47;6.90;;;;;;;19.95;46.17;96977.59;5000270;28;20206;-26
2024/01/07 09:10:41;;;;;;;7.40;6.60;;;;;;;19.95;46.37;96989.47;4998252;28;20199;-27
2024/01/07 09:13:07;;;;;;;8.10;6.70;;;;;;;19.96;46.55;96986.97;5010153;28;20277;-26
2024/01/07 09:15:34;;;;;;;7.37;6.60;;;;;;;19.98;46.91;96989.56;5008647;28;20581;-26
2024/01/07 09:18:01;;;;;;;8.07;6.57;;;;;;;19.98;46.64;96993.81;5013546;28;20702;-27
2024/01/07 09:20:27;;;;;;;8.40;6.60;;;;;;;19.97;47.17;96985.28;5006331;28;20199;-26
2024/01/07 09:22:54;;;;;;;7.97;6.50;;;;;;;19.99;47.27;96999.81;4996914;28;20277;-26
2024/01/07 09:25:21;;;;;;;6.50;5.73;;;;;;;20.01;47.33;96996.44;5001108;28;20298;-26
2024/01/07 09:27:47;;;;;;;7.00;6.30;;;;;;;19.99;47.44;96999.81;5003780;28;20199;-27
2024/01/07 09:30:14;;;;;;;6.87;6.00;;;;;;;19.98;47.99;97008.28;5004076;28;20207;-27
2024/01/07 09:32:41;;;;;;;6.83;6.07;;;;;;;19.97;48.19;97010.81;5011342;28;20313;-27
2024/01/07 09:35:08;;;;;;;6.50;5.50;;;;;;;19.94;48.37;97011.59;5007678;28;20585;-26
2024/01/07 09:37:35;;;;;;;6.77;5.93;;;;;;;19.94;48.43;97010.72;5004238;28;20669;-26
2024/01/07 09:40:04;;;;;;;7.00;6.00;;;;;;;19.93;48.64;97014.94;4998617;28;20757;-27
2024/01/07 09:42:31;;;;;;;6.37;5.60;;;;;;;19.94;48.69;97015.81;5001687;28;20234;-27
2024/01/07 09:44:59;;;;;;;6.20;5.37;;;;;;;19.93;49.15;97019.19;4997564;28;20237;-28
2024/01/07 09:47:25;;;;;;;6.90;5.83;;;;;;;19.92;48.99;97015.78;4992689;28;20626;-26
2024/01/07 09:49:52;;;;;;;5.67;5.17;;;;;;;19.92;49.26;97020.88;5004938;28;20217;-28
2024/01/07 09:52:19;;;;;;;6.43;5.70;;;;;;;19.91;49.47;97015.72;5003727;28;20218;-26
2024/01/07 09:54:46;;;;;;;6.03;5.30;;;;;;;19.92;49.72;97020.00;5004408;28;20201;-26
2024/01/07 09:57:13;;;;;;;6.43;5.77;;;;;;;19.91;49.70;97018.28;5000807;28;20234;-26
2024/01/07 09:59:39;;;;;;;6.03;5.37;;;;;;;19.91;50.01;97024.25;5005692;28;20234;-26
2024/01/07 10:02:06;;;;;;;6.77;5.63;;;;;;;19.90;50.01;97021.66;4996980;28;20747;-26
2024/01/07 10:04:33;;;;;;;6.23;4.97;;;;;;;19.93;50.09;97024.28;5003804;28;20229;-27
2024/01/07 10:07:00;;;;;;;6.27;5.43;;;;;;;19.92;50.03;97022.53;5002064;28;20203;-26
2024/01/07 10:09:32;;;;;;;6.77;5.10;;;;;;;19.91;50.26;97028.47;5002059;28;20195;-31
2024/01/07 10:11:58;;;;;;;5.77;5.17;;;;;;;19.92;50.22;97022.53;5006639;28;20792;-28
2024/01/07 10:14:25;;;;;;;7.20;5.60;;;;;;;19.91;50.29;97021.72;4999605;28;20194;-26
2024/01/07 10:16:54;;;;;;;5.27;4.77;;;;;;;19.91;50.52;97024.25;5006049;28;20764;-27
2024/01/07 10:19:22;;;;;;;5.83;4.90;;;;;;;19.92;50.47;97027.66;5005320;28;20198;-26
2024/01/07 10:22:04;;;;;;;7.03;5.13;;;;;;;19.93;50.48;97029.41;5007023;28;20312;-27
2024/01/07 10:24:36;;;;;;;6.60;4.80;;;;;;;19.92;50.61;97028.53;5007087;28;20273;-26
2024/01/07 10:27:03;;;;;;;6.40;5.20;;;;;;;19.93;51.04;97026.84;5004982;28;20229;-26
2024/01/07 10:29:29;;;;;;;6.20;5.23;;;;;;;19.90;50.50;97024.22;5011420;28;20578;-27
2024/01/07 10:31:57;;;;;;;5.57;4.97;;;;;;;19.93;50.62;97032.78;4997031;28;20226;-26
2024/01/07 10:34:25;;;;;;;6.10;5.00;;;;;;;19.92;50.68;97030.19;5006028;28;20670;-28
2024/01/07 10:36:52;;;;;;;5.20;4.70;;;;;;;19.93;50.93;97030.25;5001787;28;20216;-26
2024/01/07 10:39:19;;;;;;;6.50;4.60;;;;;;;19.94;50.81;97028.56;5004586;28;20202;-26
2024/01/07 10:41:46;;;;;;;7.20;5.33;;;;;;;19.95;51.08;97033.72;5006056;28;20214;-32
2024/01/07 10:44:12;;;;;;;7.53;5.13;;;;;;;19.96;51.00;97037.13;5006069;28;20704;-27
2024/01/07 10:46:40;;;;;;;6.20;5.03;;;;;;;19.94;50.63;97039.63;4994866;28;20199;-26
2024/01/07 10:49:17;;;;;;;5.70;4.73;;;;;;;19.95;50.89;97035.38;4994878;28;20644;-31
2024/01/07 10:51:43;;;;;;;4.90;4.40;;;;;;;19.97;50.78;97036.31;4998523;28;20222;-26
2024/01/07 10:54:11;;;;;;;5.00;4.50;;;;;;;19.96;50.73;97037.13;5000867;28;20194;-27
2024/01/07 10:56:46;;;;;;;5.23;4.73;;;;;;;19.99;50.64;97038.06;4978572;28;20211;-26
2024/01/07 10:59:12;;;;;;;6.77;4.70;;;;;;;20.01;50.54;97042.38;4994468;28;20285;-29
2024/01/07 11:01:39;;;;;;;5.57;5.00;;;;;;;20.02;50.67;97038.97;5001873;28;20633;-27
2024/01/07 11:04:31;;;;;;;5.60;4.60;;;;;;;19.99;50.56;97035.50;5003741;28;20254;-30
2024/01/07 11:07:09;;;;;;;5.93;5.00;;;;;;;20.02;50.42;97033.03;4997379;28;20205;-26
2024/01/07 11:09:41;;;;;;;5.63;4.80;;;;;;;20.04;50.60;97038.19;5000725;28;20202;-26
2024/01/07 11:12:08;;;;;;;5.77;5.17;;;;;;;20.05;50.58;97039.06;4978720;28;20273;-26
2024/01/07 11:14:39;;;;;;;10.17;5.43;;;;;;;20.06;50.69;97043.34;4998146;28;20198;-26
2024/01/07 11:17:06;;;;;;;5.20;4.70;;;;;;;20.04;50.69;97039.91;5007597;28;20206;-27
2024/01/07 11:19:35;;;;;;;6.53;4.60;;;;;;;20.03;50.84;97039.03;5001561;28;20238;-27
2024/01/07 11:22:20;;;;;;;6.83;5.13;;;;;;;20.02;50.90;97038.97;5007928;28;20226;-31
2024/01/07 11:24:46;;;;;;;5.37;4.57;;;;;;;19.99;50.99;97039.78;5002029;28;20226;-26
2024/01/07 11:27:13;;;;;;;5.87;5.27;;;;;;;19.99;51.32;97050.81;4997701;28;20202;-35
2024/01/07 11:29:40;;;;;;;5.63;4.63;;;;;;;19.98;51.26;97045.66;4997241;28;20263;-26
2024/01/07 11:32:08;;;;;;;5.93;4.80;;;;;;;19.98;51.22;97056.75;5005779;28;20284;-27
2024/01/07 11:34:43;;;;;;;5.87;4.50;;;;;;;19.97;51.26;97051.59;5005444;28;20195;-28